Pagrindinis puslapis
METAR-TAF:

METAR-TAF

Oro uostai :

Kristianstadas, Švedija

platuma: 55-55N, ilguma: 014-05E, Aukštis: 23 m

Dabartinis oras

Ataskaita buvo paskelbta 21 minutes, ne 00:50 UTC
Vėjas 9 kt iš Rytų/Pietryčių, svyruoja nuo Rytų ir Pietų/Pietryčių
Temperatūra 13°C
Drėgmė 88%
Slėgis 992 hPa
Matomumas 10 km arba daugiau
dulksna

METAR: ESMK 050050Z AUTO 12009KT 090V160 9999 -DZ FEW014/// OVC070/// 13/11 Q0992 REDZ

Laikas: 03:11 (01:11 UTC)

Prognozė

Ataskaita buvo paskelbta 13 valandos ir 57 minutes, ne 11:14 UTC
Prognozė galioja nuo 04 metu 12 UTC su 04 metu 15 UTC
Vėjas 15 kt iš Rytų
Matomumas 10 km arba daugiau
nėra debesų žemiau 1500 m ir nėra kamuolinių lietaus debesų
Laikinai
nuo 04 metu 12 UTC su 04 metu 15 UTC
Vėjas 15 kt iš Rytų su gūsio iki 25 kt

TAF: ESMK 041114Z 0412/0415 10015KT CAVOK TEMPO 0412/0415 10015G25KT

Orai ataskaitas ir orų prognozės (METAR, TAF).

turimą stotys yra geltonos ir raudonos taškus žemėlapyje.

Perkelti pele per norėdami pamatyti stoties vardą.

Tada spustelėkite, norėdami matyti oro stebėjimo ir prognozės.

Norėdami pakeisti žemėlapį: spustelėkite ant žalios mygtukų su juodo kryžiaus žemyn,; žalią mygtuką su brūkšneliu, jei norite nutolinti; arba žalių rodyklių gretimoms žemėlapius.


METAR-TAF: